Time;durP1;ratioP1;P1;durP2;ratioP2;P2;SDS_P1;SDS_P2;PMS_P1;PMS_P2;Temp;Humidity;BMP_temperature;BMP_pressure;BME280_temperature;BME280_humidity;BME280_pressure;Samples;Min_cycle;Max_cycle;Signal;HPM_P1;HPM_P2
2022/09/01 00:01:07;;;;;;;7.15;2.20;;;16.00;99.90;;;;;;5031896;28;20037;-65
2022/09/01 00:03:33;;;;;;;6.65;2.20;;;16.00;99.90;;;;;;5030271;28;20152;-65
2022/09/01 00:05:59;;;;;;;7.35;2.03;;;16.10;99.90;;;;;;5030444;28;20064;-65
2022/09/01 00:08:24;;;;;;;8.10;2.03;;;16.20;99.90;;;;;;5030538;28;20079;-65
2022/09/01 00:10:50;;;;;;;6.05;1.90;;;16.10;99.90;;;;;;5030403;28;20104;-65
2022/09/01 00:13:16;;;;;;;5.95;2.22;;;16.20;99.90;;;;;;5031339;28;20416;-64
2022/09/01 00:15:42;;;;;;;5.35;1.80;;;16.30;99.90;;;;;;5029209;28;20049;-65
2022/09/01 00:18:08;;;;;;;5.88;1.90;;;16.20;99.90;;;;;;5028556;28;20034;-64
2022/09/01 00:20:34;;;;;;;4.70;1.75;;;16.30;99.90;;;;;;5028016;28;20037;-65
2022/09/01 00:22:59;;;;;;;6.05;2.17;;;16.30;99.90;;;;;;5023165;28;20049;-65
2022/09/01 00:25:26;;;;;;;4.15;1.98;;;16.30;99.90;;;;;;5025492;28;20097;-65
2022/09/01 00:27:53;;;;;;;5.45;2.20;;;16.40;99.90;;;;;;5027535;28;20040;-64
2022/09/01 00:30:20;;;;;;;8.38;2.28;;;16.40;99.90;;;;;;5027935;28;20033;-65
2022/09/01 00:32:46;;;;;;;6.78;2.00;;;16.30;99.90;;;;;;5031418;28;20033;-65
2022/09/01 00:35:17;;;;;;;9.93;2.10;;;16.30;99.90;;;;;;5030520;28;20548;-65
2022/09/01 00:37:43;;;;;;;4.63;1.98;;;16.40;99.90;;;;;;5020963;28;20171;-65
2022/09/01 00:40:11;;;;;;;9.55;2.10;;;16.40;99.90;;;;;;5030732;28;20408;-65
2022/09/01 00:42:38;;;;;;;7.32;2.17;;;16.40;99.90;;;;;;5029543;28;20495;-65
2022/09/01 00:45:07;;;;;;;3.67;1.88;;;16.50;99.90;;;;;;5031417;28;20034;-65
2022/09/01 00:47:34;;;;;;;7.63;1.90;;;16.20;99.90;;;;;;5028573;28;20381;-65
2022/09/01 00:50:02;;;;;;;3.78;1.90;;;16.20;99.90;;;;;;5030360;28;20045;-65
2022/09/01 00:52:32;;;;;;;7.03;2.50;;;16.20;99.90;;;;;;5023301;28;20048;-65
2022/09/01 00:55:03;;;;;;;6.05;2.10;;;16.20;99.90;;;;;;5018524;28;20026;-65
2022/09/01 00:57:29;;;;;;;7.82;1.98;;;16.20;99.90;;;;;;5028309;28;20455;-65
2022/09/01 01:00:12;;;;;;;4.00;2.20;;;16.10;99.90;;;;;;5031209;28;20041;-65
2022/09/01 01:05:14;;;;;;;4.35;2.08;;;16.10;99.90;;;;;;5394450;22;20282;-64
2022/09/01 01:07:42;;;;;;;8.80;1.85;;;16.10;99.90;;;;;;5047997;28;20115;-66
2022/09/01 01:10:11;;;;;;;3.15;1.92;;;16.00;99.90;;;;;;5033329;28;20044;-65
2022/09/01 01:12:42;;;;;;;5.72;2.38;;;16.00;99.90;;;;;;5051089;28;20120;-65
2022/09/01 01:15:09;;;;;;;7.43;2.33;;;16.00;99.90;;;;;;5049623;28;20156;-66
2022/09/01 01:17:35;;;;;;;9.23;2.20;;;15.90;99.90;;;;;;5051081;28;20124;-65
2022/09/01 01:23:07;;;;;;;3.30;2.03;;;16.00;99.90;;;;;;5054174;28;20049;-65
2022/09/01 01:25:43;;;;;;;4.50;1.90;;;15.90;99.90;;;;;;5053047;28;20120;-66
2022/09/01 01:28:21;;;;;;;3.72;1.90;;;15.90;99.90;;;;;;5052114;28;20062;-66
2022/09/01 01:31:00;;;;;;;4.70;1.90;;;15.90;99.90;;;;;;5041523;28;20048;-65
2022/09/01 01:33:33;;;;;;;6.43;2.15;;;15.80;99.90;;;;;;5016913;28;20045;-66
2022/09/01 01:36:00;;;;;;;3.72;2.00;;;15.70;99.90;;;;;;5041697;28;20387;-64
2022/09/01 01:38:26;;;;;;;2.90;1.88;;;15.80;99.90;;;;;;5031408;28;20383;-66
2022/09/01 01:40:53;;;;;;;4.32;1.80;;;15.80;99.90;;;;;;5053320;28;20040;-65
2022/09/01 01:43:20;;;;;;;3.35;2.05;;;15.70;99.90;;;;;;5052840;28;20064;-66
2022/09/01 01:45:50;;;;;;;1.95;1.75;;;15.60;99.90;;;;;;5051353;28;20421;-64
2022/09/01 01:48:23;;;;;;;2.30;1.80;;;15.60;99.90;;;;;;5025314;28;20061;-64
2022/09/01 01:50:50;;;;;;;6.18;2.20;;;15.70;99.90;;;;;;5042657;28;20489;-66
2022/09/01 01:53:18;;;;;;;3.55;1.92;;;15.60;99.90;;;;;;5053593;28;20033;-65
2022/09/01 01:55:45;;;;;;;3.80;1.85;;;15.60;99.90;;;;;;5034688;28;20083;-65
2022/09/01 01:58:14;;;;;;;6.25;2.20;;;15.50;99.90;;;;;;5054264;28;20086;-66
2022/09/01 02:00:43;;;;;;;7.70;2.00;;;15.60;99.90;;;;;;5053003;28;20041;-65
2022/09/01 02:03:11;;;;;;;2.40;1.80;;;15.50;99.90;;;;;;5054161;28;20494;-65
2022/09/01 02:05:37;;;;;;;3.17;1.92;;;15.50;99.90;;;;;;5053136;28;20136;-65
2022/09/01 02:08:06;;;;;;;3.88;1.73;;;15.50;99.90;;;;;;5050605;28;20494;-66
2022/09/01 02:10:44;;;;;;;4.75;1.70;;;15.50;99.90;;;;;;5052338;28;20472;-64
2022/09/01 02:13:15;;;;;;;2.55;1.92;;;15.40;99.90;;;;;;5036138;28;20588;-66
2022/09/01 02:15:44;;;;;;;5.10;1.90;;;15.40;99.90;;;;;;5035539;28;20111;-65
2022/09/01 02:18:29;;;;;;;8.00;2.20;;;15.40;99.90;;;;;;5052566;28;20155;-66
2022/09/01 02:20:57;;;;;;;4.88;2.00;;;15.40;99.90;;;;;;5034167;28;20135;-65
2022/09/01 02:23:23;;;;;;;3.80;1.92;;;15.30;99.90;;;;;;5053508;28;20570;-65
2022/09/01 02:26:01;;;;;;;2.92;2.20;;;15.40;99.90;;;;;;5050681;28;20037;-65
2022/09/01 02:28:28;;;;;;;3.85;1.80;;;15.30;99.90;;;;;;5053742;28;20041;-66
2022/09/01 02:30:54;;;;;;;5.40;2.17;;;15.40;99.90;;;;;;5032800;28;20056;-65
2022/09/01 02:33:21;;;;;;;2.30;1.90;;;15.30;99.90;;;;;;5035294;28;20490;-65
2022/09/01 02:35:50;;;;;;;4.15;2.00;;;15.40;99.90;;;;;;5052112;28;20029;-66
2022/09/01 02:38:17;;;;;;;5.97;2.00;;;15.40;99.90;;;;;;5034252;28;20041;-65
2022/09/01 02:40:45;;;;;;;2.42;2.08;;;15.40;99.90;;;;;;5034612;28;20025;-66
2022/09/01 02:43:12;;;;;;;3.42;2.00;;;15.30;99.90;;;;;;5035406;28;20037;-65
2022/09/01 02:45:41;;;;;;;5.20;1.90;;;15.40;99.90;;;;;;5034390;28;20052;-66
2022/09/01 02:48:08;;;;;;;2.80;2.00;;;15.40;99.90;;;;;;5018428;28;20519;-64
2022/09/01 02:50:34;;;;;;;3.17;1.92;;;15.30;99.90;;;;;;5051627;28;20517;-66
2022/09/01 02:53:00;;;;;;;2.88;2.00;;;15.30;99.90;;;;;;5052097;28;20041;-66
2022/09/01 02:55:26;;;;;;;4.90;2.00;;;15.30;99.90;;;;;;5051689;28;20033;-64
2022/09/01 02:57:55;;;;;;;4.65;2.00;;;15.20;99.90;;;;;;5052560;28;20468;-65
2022/09/01 03:00:27;;;;;;;2.88;1.85;;;15.20;99.90;;;;;;5049570;28;20037;-65
2022/09/01 03:02:57;;;;;;;2.85;2.08;;;15.20;99.90;;;;;;5048341;28;20094;-65
2022/09/01 03:05:25;;;;;;;3.47;1.90;;;15.10;99.90;;;;;;5052121;28;20052;-64
2022/09/01 03:07:55;;;;;;;4.85;2.10;;;15.10;99.90;;;;;;5052265;28;20048;-65
2022/09/01 03:10:31;;;;;;;4.97;1.90;;;15.10;99.90;;;;;;5051538;28;20037;-65
2022/09/01 03:13:05;;;;;;;;;;;15.10;99.90;;;;;;5034192;28;20047;-65
2022/09/01 03:15:32;;;;;;;5.75;2.20;;;15.20;99.90;;;;;;5032829;28;19921;-64
2022/09/01 03:17:59;;;;;;;4.28;2.10;;;15.20;99.90;;;;;;5052286;28;20452;-65
2022/09/01 03:20:27;;;;;;;5.28;2.03;;;15.20;99.90;;;;;;5051540;28;20549;-65
2022/09/01 03:22:56;;;;;;;3.80;1.98;;;15.10;99.90;;;;;;5034157;28;20099;-66
2022/09/01 03:25:23;;;;;;;2.13;1.90;;;15.10;99.90;;;;;;5052034;28;20140;-65
2022/09/01 03:27:52;;;;;;;5.93;2.00;;;15.10;99.90;;;;;;5051277;28;20120;-65
2022/09/01 03:30:18;;;;;;;3.95;2.20;;;15.00;99.90;;;;;;5033614;28;20032;-66
2022/09/01 03:32:44;;;;;;;2.17;1.90;;;15.10;99.90;;;;;;5018172;28;20091;-66
2022/09/01 03:35:10;;;;;;;4.13;2.40;;;15.00;99.90;;;;;;5017910;28;20072;-65
2022/09/01 03:37:38;;;;;;;11.10;2.20;;;14.90;99.90;;;;;;5033336;28;20391;-65
2022/09/01 03:40:07;;;;;;;3.20;1.83;;;14.90;99.90;;;;;;5050259;28;20041;-65
2022/09/01 03:42:34;;;;;;;3.00;1.83;;;15.00;99.90;;;;;;5034304;28;20049;-65
2022/09/01 03:45:08;;;;;;;2.22;1.90;;;14.90;99.90;;;;;;5051201;28;20033;-66
2022/09/01 03:47:39;;;;;;;4.63;2.00;;;14.90;99.90;;;;;;5037616;28;20259;-65
2022/09/01 03:50:19;;;;;;;6.28;2.08;;;14.90;99.90;;;;;;5034001;28;20044;-65
2022/09/01 03:52:51;;;;;;;2.10;1.90;;;14.90;99.90;;;;;;5049336;28;20041;-65
2022/09/01 03:55:22;;;;;;;5.13;2.15;;;14.90;99.90;;;;;;5050736;28;20044;-66
2022/09/01 03:57:52;;;;;;;5.40;2.17;;;14.90;99.90;;;;;;5029712;28;20406;-66
2022/09/01 04:00:22;;;;;;;2.20;2.00;;;14.90;99.90;;;;;;5031585;28;20516;-65
2022/09/01 04:02:56;;;;;;;3.35;2.17;;;14.90;99.90;;;;;;5047743;28;20036;-66
2022/09/01 04:05:27;;;;;;;5.82;1.90;;;14.90;99.90;;;;;;5040052;28;20054;-65
2022/09/01 04:07:53;;;;;;;3.28;2.00;;;14.90;99.90;;;;;;5024550;28;20045;-64
2022/09/01 04:10:21;;;;;;;4.20;2.00;;;14.90;99.90;;;;;;5049968;28;20160;-65
2022/09/01 04:12:47;;;;;;;3.15;2.30;;;14.90;99.90;;;;;;5036832;28;20048;-65
2022/09/01 04:15:15;;;;;;;2.40;2.17;;;14.90;99.90;;;;;;5031536;28;20044;-65
2022/09/01 04:20:27;;;;;;;4.45;1.95;;;14.90;99.90;;;;;;5049349;28;20048;-64
2022/09/01 04:22:54;;;;;;;2.45;1.92;;;14.90;99.90;;;;;;5050232;28;20033;-66
2022/09/01 04:25:22;;;;;;;2.38;1.92;;;14.90;99.90;;;;;;5047974;28;20401;-66
2022/09/01 04:27:54;;;;;;;2.85;1.80;;;15.00;99.90;;;;;;5050004;28;20242;-65
2022/09/01 04:30:23;;;;;;;3.28;1.88;;;15.00;99.90;;;;;;5048814;28;20033;-65
2022/09/01 04:32:50;;;;;;;2.55;2.00;;;15.00;99.90;;;;;;5031349;28;20049;-66
2022/09/01 04:35:17;;;;;;;5.18;2.20;;;15.10;99.90;;;;;;5048505;28;20037;-65
2022/09/01 04:37:45;;;;;;;4.20;1.98;;;15.00;99.90;;;;;;5029315;28;20359;-66
2022/09/01 04:40:13;;;;;;;7.18;2.10;;;15.00;99.90;;;;;;5043379;28;20025;-65
2022/09/01 04:42:40;;;;;;;2.20;1.92;;;15.00;99.90;;;;;;5054923;28;20428;-65
2022/09/01 04:45:09;;;;;;;9.48;2.03;;;14.90;99.90;;;;;;5050761;28;20037;-62
2022/09/01 04:47:40;;;;;;;61.20;3.00;;;15.00;99.90;;;;;;5056907;28;20033;-63
2022/09/01 04:50:12;;;;;;;2.90;2.15;;;14.90;99.90;;;;;;5052949;28;20140;-64
2022/09/01 04:52:39;;;;;;;3.83;2.13;;;14.90;99.90;;;;;;5035876;28;20045;-64
2022/09/01 04:55:07;;;;;;;3.47;2.15;;;14.90;99.90;;;;;;5030437;28;20056;-65
2022/09/01 04:57:35;;;;;;;5.00;2.10;;;14.90;99.90;;;;;;5032053;28;20048;-64
2022/09/01 05:00:00;;;;;;;3.58;1.75;;;14.90;99.90;;;;;;5043913;28;20521;-65
2022/09/01 05:02:27;;;;;;;2.42;2.17;;;14.90;99.90;;;;;;5049636;28;20045;-65
2022/09/01 05:04:57;;;;;;;4.53;2.17;;;14.80;99.90;;;;;;5053579;28;20136;-64
2022/09/01 05:07:23;;;;;;;4.45;1.92;;;14.90;99.90;;;;;;5054003;28;20041;-64
2022/09/01 05:09:48;;;;;;;4.20;2.00;;;14.90;99.90;;;;;;5054046;28;20400;-64
2022/09/01 05:12:15;;;;;;;2.97;2.08;;;14.80;99.90;;;;;;5054126;28;20532;-64
2022/09/01 05:14:45;;;;;;;2.33;2.08;;;14.90;99.90;;;;;;5054323;28;20041;-65
2022/09/01 05:17:12;;;;;;;2.28;1.90;;;14.80;99.90;;;;;;5054346;28;20665;-65
2022/09/01 05:19:40;;;;;;;4.07;2.05;;;14.90;99.90;;;;;;5054943;28;20136;-65
2022/09/01 05:22:09;;;;;;;3.30;1.88;;;14.80;99.90;;;;;;5054617;28;20033;-65
2022/09/01 05:24:35;;;;;;;4.90;2.33;;;14.80;99.90;;;;;;5054504;28;20536;-65
2022/09/01 05:27:03;;;;;;;3.92;2.15;;;14.80;99.90;;;;;;5054047;28;20068;-65
2022/09/01 05:29:29;;;;;;;3.38;2.35;;;14.80;99.90;;;;;;5054411;28;20145;-64
2022/09/01 05:31:55;;;;;;;5.72;2.00;;;14.90;99.90;;;;;;5036831;28;20505;-64
2022/09/01 05:34:25;;;;;;;2.88;2.20;;;14.90;99.90;;;;;;5037078;28;20118;-65
2022/09/01 05:36:53;;;;;;;7.70;2.45;;;14.90;99.90;;;;;;5045601;28;20041;-64
2022/09/01 05:39:19;;;;;;;5.07;2.10;;;14.90;99.90;;;;;;5036386;28;20037;-65
2022/09/01 05:41:46;;;;;;;2.35;2.15;;;14.90;99.90;;;;;;5054603;28;20040;-65
2022/09/01 05:44:14;;;;;;;2.85;2.10;;;14.90;99.90;;;;;;5054155;28;20498;-64
2022/09/01 05:46:42;;;;;;;2.60;2.13;;;15.00;99.90;;;;;;5038368;28;20038;-64
2022/09/01 05:49:12;;;;;;;3.22;2.20;;;15.00;99.90;;;;;;5016610;28;20461;-64
2022/09/01 05:51:40;;;;;;;5.43;2.47;;;15.10;99.90;;;;;;5046685;28;20041;-64
2022/09/01 05:54:08;;;;;;;3.15;2.20;;;15.10;99.90;;;;;;5053204;28;20494;-64
2022/09/01 05:56:34;;;;;;;3.70;2.05;;;15.10;99.90;;;;;;5053458;28;20055;-64
2022/09/01 05:59:01;;;;;;;4.20;2.30;;;15.10;99.90;;;;;;5053679;28;20029;-63
2022/09/01 06:01:32;;;;;;;4.28;2.38;;;15.20;99.90;;;;;;5024045;28;20116;-63
2022/09/01 06:04:02;;;;;;;4.82;2.60;;;15.30;99.90;;;;;;5053242;28;20045;-64
2022/09/01 06:06:35;;;;;;;3.03;2.17;;;15.30;99.90;;;;;;5052666;28;20041;-63
2022/09/01 06:09:01;;;;;;;3.33;2.80;;;15.40;99.90;;;;;;5053049;28;20510;-63
2022/09/01 06:11:31;;;;;;;5.38;2.28;;;15.40;99.90;;;;;;5048328;28;20116;-63
2022/09/01 06:13:58;;;;;;;4.72;2.42;;;15.40;99.90;;;;;;5041648;28;20556;-63
2022/09/01 06:16:23;;;;;;;5.85;2.42;;;15.50;99.90;;;;;;5052289;28;20044;-64
2022/09/01 06:18:52;;;;;;;5.68;2.50;;;15.50;99.90;;;;;;5052791;28;20393;-63
2022/09/01 06:21:19;;;;;;;10.98;2.50;;;15.70;99.90;;;;;;5051934;28;20814;-63
2022/09/01 06:23:44;;;;;;;4.25;2.70;;;15.60;99.90;;;;;;5050964;28;20029;-64
2022/09/01 06:26:18;;;;;;;2.55;2.20;;;15.80;99.90;;;;;;5044375;28;20044;-63
2022/09/01 06:28:44;;;;;;;8.93;3.35;;;15.90;99.90;;;;;;5053126;28;20098;-63
2022/09/01 06:31:11;;;;;;;8.35;4.20;;;15.90;99.90;;;;;;5034015;28;20116;-63
2022/09/01 06:33:37;;;;;;;4.68;2.38;;;16.00;99.90;;;;;;5053041;28;20056;-63
2022/09/01 06:36:04;;;;;;;5.25;2.88;;;16.00;99.90;;;;;;5053152;28;20494;-63
2022/09/01 06:38:30;;;;;;;3.47;2.30;;;16.10;99.90;;;;;;5054596;28;20037;-64
2022/09/01 06:41:04;;;;;;;7.95;2.80;;;16.20;99.90;;;;;;5049878;28;20032;-63
2022/09/01 06:43:31;;;;;;;13.00;2.75;;;16.20;99.90;;;;;;5050684;28;20033;-63
2022/09/01 06:46:00;;;;;;;4.57;2.90;;;16.20;99.90;;;;;;5051744;28;20106;-64
2022/09/01 06:48:26;;;;;;;8.32;2.80;;;16.30;99.90;;;;;;5043259;28;20494;-63
2022/09/01 06:50:52;;;;;;;13.68;4.07;;;16.40;99.90;;;;;;5034332;28;20069;-64
2022/09/01 06:53:17;;;;;;;2.80;2.33;;;16.40;99.90;;;;;;5046015;28;20033;-63
2022/09/01 06:55:47;;;;;;;18.33;2.67;;;16.50;99.90;;;;;;5051724;28;20103;-65
2022/09/01 06:58:17;;;;;;;6.00;2.42;;;16.50;99.90;;;;;;5052877;28;20095;-64
2022/09/01 07:00:42;;;;;;;5.35;2.22;;;16.50;99.90;;;;;;5032783;28;20037;-63
2022/09/01 07:03:10;;;;;;;3.25;2.45;;;16.70;99.90;;;;;;5045845;28;20539;-63
2022/09/01 07:05:44;;;;;;;3.35;2.35;;;16.70;99.90;;;;;;5032168;28;20084;-63
2022/09/01 07:08:16;;;;;;;4.40;2.47;;;16.90;99.90;;;;;;5043762;28;20045;-63
2022/09/01 07:10:50;;;;;;;2.50;2.00;;;16.90;99.90;;;;;;5051778;28;20033;-63
2022/09/01 07:13:22;;;;;;;6.15;2.28;;;16.90;99.90;;;;;;5034550;28;20033;-63
2022/09/01 07:15:50;;;;;;;6.78;2.20;;;17.10;99.90;;;;;;5051088;28;20037;-64
2022/09/01 07:18:19;;;;;;;3.63;2.03;;;17.10;99.90;;;;;;5032377;28;20041;-63
2022/09/01 07:20:47;;;;;;;3.70;2.20;;;17.30;99.90;;;;;;5049027;28;20040;-63
2022/09/01 07:23:15;;;;;;;3.58;2.15;;;17.30;99.90;;;;;;5034412;28;20120;-63
2022/09/01 07:25:43;;;;;;;5.20;2.50;;;17.50;99.90;;;;;;5034435;28;20041;-64
2022/09/01 07:28:12;;;;;;;3.85;1.90;;;17.50;99.90;;;;;;5052141;28;20036;-64
2022/09/01 07:30:49;;;;;;;3.78;2.20;;;17.50;99.90;;;;;;5052154;28;20091;-64
2022/09/01 07:33:19;;;;;;;2.85;2.28;;;17.60;99.90;;;;;;5052285;28;20063;-63
2022/09/01 07:35:46;;;;;;;4.80;2.40;;;17.70;99.90;;;;;;5051924;28;20045;-64
2022/09/01 07:38:12;;;;;;;3.17;2.05;;;17.70;99.90;;;;;;5032500;28;20092;-64
2022/09/01 07:40:40;;;;;;;5.32;2.22;;;17.90;99.90;;;;;;5050614;28;20029;-64
2022/09/01 07:43:14;;;;;;;4.95;2.67;;;18.00;99.90;;;;;;5033174;28;20041;-64
2022/09/01 07:45:45;;;;;;;4.00;2.47;;;18.20;99.90;;;;;;5033478;28;20410;-64
2022/09/01 07:48:11;;;;;;;6.70;2.28;;;18.70;99.90;;;;;;5032388;28;20041;-64
2022/09/01 07:50:46;;;;;;;2.78;1.90;;;19.30;99.90;;;;;;5041562;28;20059;-64
2022/09/01 07:53:17;;;;;;;5.22;2.28;;;19.80;99.90;;;;;;5041289;28;20068;-64
2022/09/01 07:55:45;;;;;;;6.07;1.90;;;20.20;99.90;;;;;;5046496;28;20094;-64
2022/09/01 07:58:12;;;;;;;5.85;1.83;;;20.60;99.90;;;;;;5051408;28;20040;-64
2022/09/01 08:00:46;;;;;;;2.92;2.00;;;20.80;99.90;;;;;;5052039;28;20037;-64
2022/09/01 08:03:12;;;;;;;4.75;1.75;;;21.00;99.90;;;;;;5024663;28;20045;-65
2022/09/01 08:05:38;;;;;;;5.22;2.10;;;21.20;99.90;;;;;;5010672;28;20053;-65
2022/09/01 08:08:04;;;;;;;3.50;2.00;;;21.50;99.90;;;;;;5012064;28;20044;-64
2022/09/01 08:10:29;;;;;;;5.22;1.75;;;21.50;99.90;;;;;;5020623;28;20548;-65
2022/09/01 08:12:55;;;;;;;2.67;1.75;;;21.70;99.90;;;;;;5026967;28;20068;-65
2022/09/01 08:15:21;;;;;;;4.07;1.95;;;21.80;99.90;;;;;;5030394;28;20506;-65
2022/09/01 08:17:47;;;;;;;10.63;2.20;;;22.30;52.90;;;;;;5022267;28;20073;-64
2022/09/01 08:20:13;;;;;;;4.45;1.73;;;22.50;72.90;;;;;;5025544;28;20085;-65
2022/09/01 08:22:38;;;;;;;3.13;1.90;;;22.40;1.00;;;;;;5031461;28;20483;-64
2022/09/01 08:25:07;;;;;;;3.58;1.67;;;22.30;99.90;;;;;;5030388;28;20091;-65
2022/09/01 08:27:40;;;;;;;5.80;1.65;;;22.20;99.90;;;;;;5022085;28;20403;-65
2022/09/01 08:30:09;;;;;;;5.78;1.77;;;22.30;99.90;;;;;;5023322;28;20076;-65
2022/09/01 08:32:36;;;;;;;13.63;2.00;;;22.60;1.00;;;;;;5027638;28;20038;-65
2022/09/01 08:35:03;;;;;;;3.65;1.60;;;22.70;99.90;;;;;;5010234;28;20037;-65
2022/09/01 08:37:30;;;;;;;3.33;1.50;;;22.80;99.90;;;;;;5020461;28;20527;-65
2022/09/01 08:39:55;;;;;;;3.75;1.80;;;23.10;99.90;;;;;;5030812;28;20486;-64
2022/09/01 08:42:57;;;;;;;5.25;1.75;;;23.10;1.00;;;;;;5012802;28;20045;-65
2022/09/01 08:45:38;;;;;;;3.50;1.70;;;23.00;99.90;;;;;;5025798;28;20134;-65
2022/09/01 08:48:34;;;;;;;1.90;1.60;;;23.00;1.00;;;;;;5026623;28;20406;-65
2022/09/01 08:51:41;;;;;;;8.13;2.10;;;23.10;99.90;;;;;;5011568;28;20128;-65
2022/09/01 08:54:22;;;;;;;20.33;2.42;;;23.50;99.90;;;;;;5025223;28;20050;-64
2022/09/01 08:56:59;;;;;;;7.63;1.60;;;23.20;1.00;;;;;;5028574;28;20045;-64
2022/09/01 08:59:25;;;;;;;4.70;1.90;;;22.70;99.90;;;;;;5031436;28;20172;-65
2022/09/01 09:02:18;;;;;;;4.82;1.70;;;22.50;99.90;;;;;;5030493;28;20120;-65
2022/09/01 09:04:55;;;;;;;22.23;1.83;;;22.70;99.90;;;;;;5033956;28;20425;-65
2022/09/01 09:07:58;;;;;;;2.70;1.58;;;22.90;99.90;;;;;;5031384;28;20545;-65
2022/09/01 09:10:36;;;;;;;5.85;1.58;;;23.40;99.90;;;;;;5012846;28;20124;-65
2022/09/01 09:13:28;;;;;;;3.58;1.77;;;24.00;99.90;;;;;;5027738;28;20072;-65
2022/09/01 09:16:02;;;;;;;3.15;1.58;;;24.20;91.10;;;;;;5034234;28;20085;-65
2022/09/01 09:18:49;;;;;;;2.50;1.60;;;24.50;12.50;;;;;;5031192;28;20036;-65
2022/09/01 09:22:00;;;;;;;2.90;1.67;;;24.80;1.00;;;;;;5031225;28;20041;-65
2022/09/01 09:24:48;;;;;;;4.57;1.80;;;25.00;1.00;;;;;;5034008;28;20084;-66
2022/09/01 09:27:26;;;;;;;24.30;1.98;;;25.00;99.90;;;;;;5050578;28;20045;-65
2022/09/01 09:29:58;;;;;;;13.02;1.88;;;24.90;99.90;;;;;;5047415;28;20037;-65
2022/09/01 09:32:49;;;;;;;5.47;2.17;;;24.80;99.90;;;;;;5031248;28;20045;-65
2022/09/01 09:35:32;;;;;;;3.92;1.50;;;24.70;99.90;;;;;;5023609;28;20128;-66
2022/09/01 09:38:17;;;;;;;13.40;1.60;;;24.60;99.90;;;;;;5050988;28;20402;-65
2022/09/01 09:41:05;;;;;;;2.05;1.40;;;24.50;99.90;;;;;;5035681;28;20475;-66
2022/09/01 09:43:34;;;;;;;7.22;1.90;;;24.30;99.90;;;;;;5034645;28;20033;-65
2022/09/01 09:46:31;;;;;;;3.80;1.50;;;24.40;99.90;;;;;;5050464;28;20460;-65
2022/09/01 09:49:07;;;;;;;2.33;1.50;;;24.20;73.20;;;;;;5054372;28;20036;-65
2022/09/01 09:51:33;;;;;;;2.55;1.30;;;24.20;63.20;;;;;;5054332;28;20041;-65
2022/09/01 09:54:14;;;;;;;3.15;1.50;;;24.50;48.00;;;;;;5041819;28;20029;-66
2022/09/01 09:56:43;;;;;;;2.05;1.55;;;24.00;41.80;;;;;;5034665;28;20052;-66
2022/09/01 09:59:27;;;;;;;3.65;1.13;;;23.80;18.30;;;;;;5019310;28;20037;-65
2022/09/01 10:01:58;;;;;;;3.17;1.20;;;23.80;1.00;;;;;;5053828;28;20037;-65
2022/09/01 10:04:33;;;;;;;1.85;1.20;;;23.80;1.00;;;;;;5053164;28;20053;-65
2022/09/01 10:06:59;;;;;;;1.00;1.00;;;23.80;1.00;;;;;;5044835;28;20095;-65
2022/09/01 10:09:25;;;;;;;2.63;1.77;;;23.80;1.00;;;;;;5043735;28;20041;-66
2022/09/01 10:11:54;;;;;;;5.88;1.10;;;24.00;1.00;;;;;;5054051;28;20120;-66
2022/09/01 10:14:24;;;;;;;0.88;0.70;;;24.10;1.00;;;;;;5052234;28;20542;-65
2022/09/01 10:16:57;;;;;;;2.47;1.30;;;24.40;1.00;;;;;;5039134;28;20481;-66
2022/09/01 10:19:26;;;;;;;3.25;1.20;;;24.60;1.00;;;;;;5027954;28;20056;-65
2022/09/01 10:21:52;;;;;;;3.40;1.40;;;24.40;1.00;;;;;;5053937;28;20406;-65
2022/09/01 10:24:36;;;;;;;2.35;1.35;;;24.40;1.00;;;;;;5053729;28;20490;-65
2022/09/01 10:27:09;;;;;;;5.93;1.40;;;24.30;1.00;;;;;;5052577;28;20053;-65
2022/09/01 10:29:51;;;;;;;1.45;1.02;;;24.40;1.00;;;;;;5044901;28;20043;-65
2022/09/01 10:32:23;;;;;;;3.22;1.08;;;24.50;1.00;;;;;;5046609;28;20041;-65
2022/09/01 10:34:50;;;;;;;23.77;2.65;;;24.60;1.00;;;;;;5046604;28;20071;-65
2022/09/01 10:37:16;;;;;;;2.20;1.77;;;24.50;1.00;;;;;;5053035;28;20037;-65
2022/09/01 10:40:09;;;;;;;1.73;0.90;;;24.30;99.90;;;;;;5030888;28;20037;-65
2022/09/01 10:42:35;;;;;;;3.65;1.15;;;24.50;99.90;;;;;;5039376;28;20041;-64
2022/09/01 10:45:01;;;;;;;1.23;0.95;;;24.50;99.90;;;;;;5044413;28;21303;-65
2022/09/01 10:47:32;;;;;;;2.40;1.00;;;24.70;99.90;;;;;;5052375;28;20549;-65
2022/09/01 10:50:02;;;;;;;2.08;1.08;;;24.70;99.90;;;;;;5033374;28;20494;-65
2022/09/01 10:52:40;;;;;;;2.35;1.00;;;24.50;99.90;;;;;;5042308;28;20095;-64
2022/09/01 10:55:16;;;;;;;4.68;1.23;;;24.60;99.90;;;;;;5043136;28;20500;-65
2022/09/01 10:57:49;;;;;;;1.77;1.05;;;24.60;99.90;;;;;;5034513;28;20045;-65
2022/09/01 11:00:38;;;;;;;3.63;1.38;;;24.10;99.90;;;;;;5040420;28;20034;-65
2022/09/01 11:03:10;;;;;;;5.55;1.23;;;23.60;99.90;;;;;;5032985;28;20053;-64
2022/09/01 11:05:54;;;;;;;2.90;1.10;;;23.90;99.90;;;;;;5043495;28;20056;-65
2022/09/01 11:08:28;;;;;;;3.95;1.17;;;24.00;99.90;;;;;;5041721;28;20124;-65
2022/09/01 11:11:07;;;;;;;4.78;0.95;;;23.60;99.90;;;;;;5052155;28;20033;-64
2022/09/01 11:13:42;;;;;;;2.72;1.30;;;23.40;99.90;;;;;;5046525;28;20063;-65
2022/09/01 11:16:38;;;;;;;2.53;1.40;;;23.30;99.90;;;;;;5044840;28;20063;-65
2022/09/01 11:19:22;;;;;;;1.92;1.17;;;23.50;99.90;;;;;;5039392;28;20498;-67
2022/09/01 11:22:21;;;;;;;1.65;1.30;;;23.70;99.90;;;;;;5052527;28;20037;-66
2022/09/01 11:25:32;;;;;;;2.28;1.30;;;23.70;99.90;;;;;;5050061;28;20037;-65
2022/09/01 11:28:14;;;;;;;5.95;1.50;;;23.70;99.90;;;;;;5012568;28;20049;-66
2022/09/01 11:30:51;;;;;;;6.25;1.55;;;23.60;99.90;;;;;;5039059;28;20045;-66
2022/09/01 11:33:46;;;;;;;4.97;1.33;;;23.70;99.90;;;;;;5032401;28;20038;-65
2022/09/01 11:36:31;;;;;;;3.38;1.17;;;23.70;99.90;;;;;;5032126;28;20067;-67
2022/09/01 11:39:05;;;;;;;1.38;1.10;;;23.70;99.90;;;;;;5050828;28;20056;-65
2022/09/01 11:41:54;;;;;;;23.27;2.85;;;23.60;99.90;;;;;;5034716;28;20038;-65
2022/09/01 11:44:46;;;;;;;6.50;1.20;;;23.30;99.90;;;;;;5024038;28;20457;-65
2022/09/01 11:47:31;;;;;;;1.73;1.15;;;23.40;99.90;;;;;;5030074;28;20052;-65
2022/09/01 11:50:06;;;;;;;3.60;1.23;;;23.40;99.90;;;;;;5046168;28;20128;-66
2022/09/01 11:52:36;;;;;;;5.38;1.17;;;23.60;99.90;;;;;;5014009;28;20516;-66
2022/09/01 11:55:04;;;;;;;2.58;1.00;;;23.60;99.90;;;;;;5051666;28;20040;-65
2022/09/01 11:57:33;;;;;;;2.80;1.25;;;23.60;99.90;;;;;;5035739;28;20115;-66
2022/09/01 12:00:04;;;;;;;3.22;1.30;;;23.70;99.90;;;;;;5041573;28;20542;-65
2022/09/01 12:02:33;;;;;;;2.50;0.90;;;23.60;99.90;;;;;;5042839;28;20041;-65
2022/09/01 12:05:02;;;;;;;2.42;1.25;;;23.60;99.90;;;;;;5050870;28;20065;-65
2022/09/01 12:07:43;;;;;;;2.72;0.90;;;23.60;99.90;;;;;;5048885;28;20052;-65
2022/09/01 12:10:29;;;;;;;3.30;0.95;;;23.40;99.90;;;;;;5031790;28;20528;-66
2022/09/01 12:13:28;;;;;;;4.28;1.05;;;23.20;99.90;;;;;;5039979;28;20034;-65
2022/09/01 12:15:59;;;;;;;23.67;1.80;;;23.10;99.90;;;;;;5021266;28;20409;-65
2022/09/01 12:18:46;;;;;;;72.68;3.28;;;23.10;99.90;;;;;;5035918;28;20048;-66
2022/09/01 12:21:21;;;;;;;14.93;1.70;;;23.10;99.90;;;;;;5032041;28;20033;-66
2022/09/01 12:23:47;;;;;;;2.40;1.30;;;23.00;99.90;;;;;;5045762;28;20508;-66
2022/09/01 12:26:19;;;;;;;20.45;2.25;;;23.00;99.90;;;;;;5026021;28;20732;-66
2022/09/01 12:28:48;;;;;;;3.72;1.52;;;23.00;99.90;;;;;;5041101;28;20057;-65
2022/09/01 12:31:17;;;;;;;44.05;2.25;;;23.00;99.90;;;;;;5032268;28;20041;-65
2022/09/01 12:33:43;;;;;;;53.55;2.88;;;23.00;99.90;;;;;;5033801;28;20048;-66
2022/09/01 12:36:22;;;;;;;31.38;2.08;;;22.90;99.90;;;;;;5051390;28;20605;-66
2022/09/01 12:38:48;;;;;;;11.20;1.48;;;22.80;99.90;;;;;;5050159;28;20033;-66
2022/09/01 12:41:25;;;;;;;8.30;1.30;;;22.60;99.90;;;;;;5050825;28;20032;-65
2022/09/01 12:43:51;;;;;;;71.15;3.53;;;22.50;99.90;;;;;;5049587;28;20112;-65
2022/09/01 12:46:46;;;;;;;20.48;1.70;;;22.60;99.90;;;;;;5016690;28;20132;-65
2022/09/01 12:49:34;;;;;;;75.10;3.20;;;22.70;99.90;;;;;;5034651;28;20443;-66
2022/09/01 12:52:09;;;;;;;13.73;1.33;;;22.70;99.90;;;;;;5042229;28;20486;-64
2022/09/01 12:54:35;;;;;;;4.95;1.30;;;22.90;99.90;;;;;;5046203;28;20456;-65
2022/09/01 12:57:01;;;;;;;5.65;1.10;;;22.70;99.90;;;;;;5050952;28;20045;-65
2022/09/01 12:59:27;;;;;;;7.35;1.20;;;22.80;99.90;;;;;;5038457;28;20040;-64
2022/09/01 13:01:52;;;;;;;1.30;1.00;;;22.90;99.90;;;;;;5032938;28;20037;-65
2022/09/01 13:04:27;;;;;;;62.72;2.60;;;23.00;99.90;;;;;;5037859;28;20068;-66
2022/09/01 13:06:55;;;;;;;495.50;19.45;;;23.00;99.90;;;;;;5051084;28;20116;-66
2022/09/01 13:09:21;;;;;;;16.48;1.50;;;22.80;99.90;;;;;;5029931;28;20100;-65
2022/09/01 13:11:47;;;;;;;11.80;1.20;;;22.90;99.90;;;;;;5033589;28;20522;-65
2022/09/01 13:14:14;;;;;;;8.98;1.83;;;23.10;99.90;;;;;;5033181;28;20127;-65
2022/09/01 13:16:40;;;;;;;4.80;1.05;;;23.10;99.90;;;;;;5023184;28;20100;-65